Terminal Aerodrome Forecast
Issued by NWS

Home | Current Version | Previous Version | Text Only | Print | Product List | Glossary On
Versions: 1 2 3 4 5 6 7 8 9 10 11 12 13 14 15 16 17 18 19 20
004
FTUS42 KTBW 192320
TAFLAL
TAF
KLAL 192320Z 2000/2024 32007KT P6SM SKC
     FM200200 02003KT P6SM SKC
     FM200600 00000KT 4SM BR SCT005
     FM200900 00000KT 1/2SM FG BKN005
     FM201400 10007KT P6SM SCT250
      AMD NOT SKED 2002/2011=

USA.gov is the U.S. government's official web portal to all federal, state and local government web resources and services.